Time;durP1;ratioP1;P1;durP2;ratioP2;P2;SDS_P1;SDS_P2;PMS_P1;PMS_P2;Temp;Humidity;BMP_temperature;BMP_pressure;BME280_temperature;BME280_humidity;BME280_pressure;Samples;Min_cycle;Max_cycle;Signal;HPM_P1;HPM_P2
2022/09/06 00:01:23;;;;;;;4.00;1.50;;;16.10;67.50;;;;;;4998894;28;20197;-90
2022/09/06 00:03:49;;;;;;;3.17;1.40;;;16.00;67.60;;;;;;4998268;28;20177;-90
2022/09/06 00:06:17;;;;;;;1.63;1.45;;;16.00;67.70;;;;;;4998258;28;20579;-90
2022/09/06 00:08:44;;;;;;;4.80;1.67;;;16.00;67.80;;;;;;5015736;28;20584;-90
2022/09/06 00:11:10;;;;;;;3.13;1.40;;;15.90;67.80;;;;;;4998080;28;20197;-91
2022/09/06 00:13:37;;;;;;;4.10;1.50;;;16.00;67.90;;;;;;5015625;28;20173;-90
2022/09/06 00:16:07;;;;;;;5.10;1.50;;;15.90;68.00;;;;;;4998103;28;20212;-90
2022/09/06 00:18:33;;;;;;;2.83;1.50;;;15.90;68.00;;;;;;5015612;28;20181;-91
2022/09/06 00:20:59;;;;;;;6.28;1.77;;;15.90;68.00;;;;;;4998038;28;20177;-90
2022/09/06 00:23:24;;;;;;;1.60;1.30;;;15.90;68.10;;;;;;4997835;28;20205;-90
2022/09/06 00:25:50;;;;;;;3.13;1.40;;;15.80;68.30;;;;;;4997831;28;20205;-91
2022/09/06 00:28:15;;;;;;;9.67;2.53;;;15.80;68.40;;;;;;5015684;28;20170;-90
2022/09/06 00:30:41;;;;;;;2.13;1.50;;;15.80;68.50;;;;;;4999396;28;20319;-88
2022/09/06 00:33:07;;;;;;;4.07;1.20;;;15.80;68.70;;;;;;4998484;28;20177;-89
2022/09/06 00:35:32;;;;;;;2.42;1.70;;;15.70;68.80;;;;;;4997818;28;20212;-89
2022/09/06 00:38:00;;;;;;;8.27;1.60;;;15.70;68.60;;;;;;5015218;28;20192;-89
2022/09/06 00:40:28;;;;;;;5.53;1.50;;;15.70;68.90;;;;;;4998310;28;20216;-89
2022/09/06 00:42:54;;;;;;;4.93;1.60;;;15.70;69.10;;;;;;4997468;28;20212;-88
2022/09/06 00:45:21;;;;;;;1.83;1.57;;;15.60;69.30;;;;;;5015370;28;20250;-90
2022/09/06 00:47:47;;;;;;;2.40;1.97;;;15.60;69.40;;;;;;4997625;28;20643;-90
2022/09/06 00:50:16;;;;;;;3.07;1.73;;;15.60;69.50;;;;;;4997532;28;20261;-90
2022/09/06 00:52:43;;;;;;;4.97;1.63;;;15.60;69.40;;;;;;5014928;28;20178;-89
2022/09/06 00:55:09;;;;;;;2.37;1.60;;;15.60;69.20;;;;;;5014761;28;20185;-90
2022/09/06 00:57:35;;;;;;;2.37;1.60;;;15.60;69.30;;;;;;4997113;28;20738;-90
2022/09/06 01:00:03;;;;;;;2.40;1.70;;;15.60;69.20;;;;;;4997477;28;20643;-89
2022/09/06 01:02:29;;;;;;;3.70;1.67;;;15.60;69.20;;;;;;4997266;28;20201;-89
2022/09/06 01:04:55;;;;;;;3.40;1.70;;;15.60;69.30;;;;;;5014804;28;20211;-89
2022/09/06 01:07:38;;;;;;;3.67;1.60;;;15.50;69.40;;;;;;5014629;28;20569;-89
2022/09/06 01:10:42;;;;;;;2.20;1.57;;;15.50;69.40;;;;;;5014700;28;20154;-89
2022/09/06 01:13:27;;;;;;;3.03;1.67;;;15.60;69.20;;;;;;4958205;28;20193;-87
2022/09/06 01:16:07;;;;;;;3.87;1.87;;;15.60;68.90;;;;;;4997248;28;20232;-88
2022/09/06 01:18:51;;;;;;;2.00;1.60;;;15.70;68.60;;;;;;4996926;28;20693;-89
2022/09/06 01:21:40;;;;;;;4.93;1.83;;;15.70;68.40;;;;;;5014679;28;20166;-89
2022/09/06 01:24:43;;;;;;;4.30;1.50;;;15.70;68.50;;;;;;4977627;28;20189;-88
2022/09/06 01:27:14;;;;;;;2.00;1.40;;;15.70;68.60;;;;;;5014149;28;20197;-88
2022/09/06 01:30:03;;;;;;;7.77;1.70;;;15.70;68.40;;;;;;5014431;28;20651;-88
2022/09/06 01:32:45;;;;;;;1.70;1.60;;;15.70;68.40;;;;;;4996737;28;20192;-89
2022/09/06 01:35:19;;;;;;;4.00;1.80;;;15.60;68.60;;;;;;5014346;28;20169;-88
2022/09/06 01:37:44;;;;;;;3.53;1.70;;;15.60;68.80;;;;;;5014208;28;20158;-89
2022/09/06 01:40:10;;;;;;;5.50;1.70;;;15.60;68.60;;;;;;4996588;28;20188;-90
2022/09/06 01:42:38;;;;;;;4.87;1.70;;;15.50;68.70;;;;;;5014131;28;20189;-88
2022/09/06 01:45:09;;;;;;;2.97;1.60;;;15.50;68.90;;;;;;4996432;28;20223;-90
2022/09/06 01:48:03;;;;;;;4.90;1.80;;;15.50;68.80;;;;;;4996546;28;20162;-89
2022/09/06 01:50:47;;;;;;;6.30;1.87;;;15.50;68.60;;;;;;5013880;28;20303;-91
2022/09/06 01:53:50;;;;;;;1.97;1.63;;;15.50;68.70;;;;;;5014220;28;20173;-88
2022/09/06 01:56:19;;;;;;;2.53;1.43;;;15.50;68.90;;;;;;4996156;28;20201;-89
2022/09/06 01:59:08;;;;;;;5.37;1.67;;;15.50;68.90;;;;;;5013828;28;20169;-89
2022/09/06 02:01:33;;;;;;;1.60;1.50;;;15.40;68.80;;;;;;4996224;28;20591;-89
2022/09/06 02:03:59;;;;;;;2.73;1.57;;;15.40;68.80;;;;;;4996252;28;20173;-89
2022/09/06 02:06:29;;;;;;;2.10;1.90;;;15.40;68.80;;;;;;5013673;28;20189;-89
2022/09/06 02:09:05;;;;;;;10.43;1.93;;;15.40;68.70;;;;;;4996210;28;20161;-89
2022/09/06 02:11:41;;;;;;;4.90;1.80;;;15.40;68.70;;;;;;5013480;28;20192;-88
2022/09/06 02:14:16;;;;;;;5.20;2.23;;;15.30;68.60;;;;;;5013669;28;20161;-89
2022/09/06 02:16:47;;;;;;;2.30;1.93;;;15.30;68.60;;;;;;5013630;28;20193;-89
2022/09/06 02:19:23;;;;;;;6.03;2.10;;;15.30;68.50;;;;;;5013928;28;20153;-89
2022/09/06 02:21:51;;;;;;;5.33;2.00;;;15.40;68.20;;;;;;5013516;28;20275;-89
2022/09/06 02:24:22;;;;;;;3.17;1.87;;;15.40;68.30;;;;;;5013607;28;20546;-89
2022/09/06 02:26:48;;;;;;;7.43;1.80;;;15.40;68.10;;;;;;4995955;28;20358;-89
2022/09/06 02:29:16;;;;;;;3.67;1.90;;;15.40;68.00;;;;;;4995987;28;20177;-89
2022/09/06 02:31:54;;;;;;;2.17;1.50;;;15.40;68.00;;;;;;5013477;28;20177;-89
2022/09/06 02:34:20;;;;;;;3.47;1.40;;;15.40;67.80;;;;;;4996185;28;20168;-89
2022/09/06 02:36:46;;;;;;;3.57;1.83;;;15.40;67.90;;;;;;4996201;28;20683;-89
2022/09/06 02:39:12;;;;;;;1.87;1.63;;;15.30;67.70;;;;;;5013356;28;20267;-88
2022/09/06 02:41:41;;;;;;;3.30;1.70;;;15.30;67.50;;;;;;4995811;28;20248;-89
2022/09/06 02:44:07;;;;;;;2.80;1.80;;;15.40;67.60;;;;;;4995787;28;20664;-89
2022/09/06 02:46:32;;;;;;;3.40;1.97;;;15.40;67.30;;;;;;5013300;28;20185;-89
2022/09/06 02:48:58;;;;;;;4.03;1.97;;;15.30;67.40;;;;;;4995678;28;20169;-88
2022/09/06 02:51:23;;;;;;;1.97;1.60;;;15.40;67.00;;;;;;4995617;28;20177;-89
2022/09/06 02:53:49;;;;;;;3.53;1.50;;;15.40;66.70;;;;;;4995820;28;20178;-88
2022/09/06 02:56:14;;;;;;;3.77;1.93;;;15.40;66.40;;;;;;4995676;28;20683;-89
2022/09/06 02:58:40;;;;;;;6.07;1.70;;;15.50;66.50;;;;;;5013183;28;20248;-88
2022/09/06 03:01:06;;;;;;;4.60;1.77;;;15.40;66.50;;;;;;4995660;28;20211;-89
2022/09/06 03:03:31;;;;;;;2.00;1.50;;;15.50;66.00;;;;;;5013055;28;20205;-89
2022/09/06 03:05:57;;;;;;;3.03;1.80;;;15.50;66.10;;;;;;5015174;28;20197;-89
2022/09/06 03:08:25;;;;;;;6.03;1.83;;;15.50;65.70;;;;;;4995627;28;20174;-88
2022/09/06 03:10:53;;;;;;;3.07;1.60;;;15.50;65.60;;;;;;4995556;28;20558;-89
2022/09/06 03:13:19;;;;;;;3.50;1.90;;;15.50;64.90;;;;;;4995559;28;20192;-89
2022/09/06 03:15:49;;;;;;;2.80;1.70;;;15.50;64.90;;;;;;4996086;28;20202;-89
2022/09/06 03:18:15;;;;;;;2.07;1.87;;;15.60;64.50;;;;;;5013473;28;20165;-88
2022/09/06 03:20:40;;;;;;;3.77;1.83;;;15.60;64.10;;;;;;4995615;28;20188;-89
2022/09/06 03:23:06;;;;;;;4.40;1.60;;;15.60;64.00;;;;;;4999091;28;20204;-89
2022/09/06 03:25:31;;;;;;;2.53;1.60;;;15.60;64.00;;;;;;5016680;28;20303;-89
2022/09/06 03:27:57;;;;;;;4.77;2.07;;;15.60;63.50;;;;;;5016507;28;20178;-89
2022/09/06 03:30:22;;;;;;;1.93;1.73;;;15.60;63.60;;;;;;5016594;28;20256;-88
2022/09/06 03:32:48;;;;;;;3.20;2.00;;;15.60;63.60;;;;;;5016735;28;20251;-89
2022/09/06 03:35:14;;;;;;;6.93;2.10;;;15.60;63.70;;;;;;4998802;28;20181;-89
2022/09/06 03:37:39;;;;;;;4.00;2.20;;;15.60;63.70;;;;;;5016672;28;20178;-89
2022/09/06 03:40:06;;;;;;;2.70;1.83;;;15.60;63.20;;;;;;5016363;28;20273;-89
2022/09/06 03:42:31;;;;;;;7.77;1.93;;;15.60;63.20;;;;;;4998673;28;20212;-88
2022/09/06 03:44:57;;;;;;;3.83;1.90;;;15.60;62.90;;;;;;4998699;28;20276;-89
2022/09/06 03:47:23;;;;;;;3.80;2.10;;;15.60;63.10;;;;;;4998575;28;20177;-88
2022/09/06 03:49:49;;;;;;;6.27;1.80;;;15.60;62.70;;;;;;5016132;28;20236;-89
2022/09/06 03:52:15;;;;;;;4.20;2.00;;;15.60;62.60;;;;;;4998605;28;20273;-89
2022/09/06 03:54:41;;;;;;;3.90;1.90;;;15.50;62.90;;;;;;4998908;28;20236;-88
2022/09/06 03:57:07;;;;;;;4.60;1.80;;;15.60;62.50;;;;;;5016087;28;20204;-90
2022/09/06 03:59:33;;;;;;;6.17;2.10;;;15.60;62.50;;;;;;4998523;28;20272;-89
2022/09/06 04:01:59;;;;;;;2.23;1.53;;;15.60;62.50;;;;;;4998275;28;20251;-90
2022/09/06 04:04:24;;;;;;;4.23;1.97;;;15.60;61.90;;;;;;4999035;28;20181;-90
2022/09/06 04:06:50;;;;;;;3.03;2.10;;;15.60;61.90;;;;;;5015730;28;20193;-90
2022/09/06 04:09:15;;;;;;;3.93;2.00;;;15.60;61.70;;;;;;5015815;28;20177;-89
2022/09/06 04:11:41;;;;;;;4.10;1.77;;;15.60;62.10;;;;;;5015743;28;20322;-89
2022/09/06 04:14:07;;;;;;;4.83;2.03;;;15.50;62.00;;;;;;4998324;28;20182;-89
2022/09/06 04:16:32;;;;;;;5.27;2.00;;;15.60;61.60;;;;;;5015529;28;20197;-89
2022/09/06 04:18:59;;;;;;;9.30;1.93;;;15.60;61.50;;;;;;4998036;28;20181;-89
2022/09/06 04:21:25;;;;;;;5.60;2.00;;;15.60;61.50;;;;;;5015629;28;20181;-90
2022/09/06 04:23:51;;;;;;;5.43;1.90;;;15.50;61.70;;;;;;4998069;28;20722;-89
2022/09/06 04:26:16;;;;;;;1.93;1.73;;;15.50;61.40;;;;;;5015366;28;20300;-89
2022/09/06 04:28:42;;;;;;;3.50;1.80;;;15.50;61.60;;;;;;4997991;28;20635;-88
2022/09/06 04:31:08;;;;;;;7.73;1.70;;;15.50;61.20;;;;;;4997866;28;20212;-89
2022/09/06 04:33:35;;;;;;;4.30;1.67;;;15.50;61.30;;;;;;5014944;28;20185;-90
2022/09/06 04:36:02;;;;;;;6.20;1.80;;;15.60;60.80;;;;;;4997972;28;20276;-90
2022/09/06 04:38:30;;;;;;;5.60;2.13;;;15.60;60.80;;;;;;5015251;28;20260;-89
2022/09/06 04:40:55;;;;;;;5.83;2.07;;;15.60;60.40;;;;;;4997833;28;20208;-90
2022/09/06 04:43:22;;;;;;;4.83;1.90;;;15.60;60.30;;;;;;5015349;28;20699;-89
2022/09/06 04:45:47;;;;;;;1.93;1.73;;;15.70;59.70;;;;;;5015027;28;20655;-90
2022/09/06 04:48:13;;;;;;;2.67;1.70;;;15.60;59.70;;;;;;5015066;28;20256;-88
2022/09/06 04:50:39;;;;;;;3.83;2.03;;;15.60;60.00;;;;;;4997652;28;20177;-88
2022/09/06 04:53:05;;;;;;;9.57;1.80;;;15.60;59.90;;;;;;4997755;28;20177;-89
2022/09/06 04:55:32;;;;;;;3.83;1.90;;;15.50;60.00;;;;;;4997326;28;20730;-89
2022/09/06 04:57:59;;;;;;;4.23;2.37;;;15.50;59.90;;;;;;5014916;28;20173;-89
2022/09/06 05:00:30;;;;;;;2.20;1.60;;;15.50;60.10;;;;;;4997430;28;20181;-90
2022/09/06 05:02:56;;;;;;;3.93;1.90;;;15.50;59.50;;;;;;5014914;28;20193;-89
2022/09/06 05:05:21;;;;;;;2.47;2.00;;;15.60;58.70;;;;;;5014935;28;20686;-89
2022/09/06 05:07:51;;;;;;;4.47;1.80;;;15.60;58.90;;;;;;5015063;28;20651;-88
2022/09/06 05:10:16;;;;;;;4.30;1.80;;;15.60;58.70;;;;;;5014666;28;20650;-89
2022/09/06 05:12:42;;;;;;;2.80;1.77;;;15.50;59.20;;;;;;4997042;28;20180;-89
2022/09/06 05:15:08;;;;;;;3.37;1.53;;;15.50;58.70;;;;;;4996950;28;20252;-89
2022/09/06 05:17:33;;;;;;;2.17;1.90;;;15.60;58.60;;;;;;5014484;28;20182;-88
2022/09/06 05:19:59;;;;;;;3.43;1.60;;;15.70;57.80;;;;;;4997168;28;20201;-89
2022/09/06 05:22:24;;;;;;;5.90;1.90;;;15.60;57.90;;;;;;5014390;28;20255;-87
2022/09/06 05:24:51;;;;;;;1.80;1.40;;;15.70;58.00;;;;;;4996976;28;20173;-88
2022/09/06 05:27:16;;;;;;;3.80;1.80;;;15.70;57.80;;;;;;5014284;28;20209;-88
2022/09/06 05:29:42;;;;;;;4.50;1.60;;;15.70;57.70;;;;;;4996706;28;20185;-88
2022/09/06 05:32:08;;;;;;;4.53;1.80;;;15.70;57.80;;;;;;4996881;28;20181;-88
2022/09/06 05:34:33;;;;;;;3.37;1.53;;;15.70;57.30;;;;;;4996921;28;20181;-90
2022/09/06 05:36:59;;;;;;;2.43;1.90;;;15.70;57.20;;;;;;4996811;28;20207;-90
2022/09/06 05:39:24;;;;;;;2.63;1.70;;;15.70;57.50;;;;;;4996698;28;20184;-90
2022/09/06 05:41:50;;;;;;;5.33;1.60;;;15.80;57.40;;;;;;4996547;28;20669;-89
2022/09/06 05:44:15;;;;;;;4.70;1.57;;;15.80;57.10;;;;;;4996351;28;20204;-87
2022/09/06 05:46:44;;;;;;;1.73;1.33;;;15.80;57.20;;;;;;4996437;28;20205;-90
2022/09/06 05:49:10;;;;;;;4.37;1.50;;;15.80;57.10;;;;;;4996748;28;20177;-90
2022/09/06 05:51:36;;;;;;;3.07;1.73;;;15.70;57.30;;;;;;4996815;28;20178;-90
2022/09/06 05:54:01;;;;;;;6.27;2.20;;;15.80;57.70;;;;;;4996735;28;20181;-90
2022/09/06 05:56:28;;;;;;;5.70;1.70;;;15.80;57.00;;;;;;4996375;28;20199;-89
2022/09/06 05:58:53;;;;;;;2.70;1.50;;;15.80;57.20;;;;;;4996595;28;20198;-89
2022/09/06 06:01:25;;;;;;;2.97;1.80;;;15.80;57.10;;;;;;4996179;28;20640;-89
2022/09/06 06:03:54;;;;;;;2.70;1.67;;;15.80;57.20;;;;;;4996300;28;20252;-89
2022/09/06 06:06:20;;;;;;;2.50;1.90;;;15.80;56.90;;;;;;5013739;28;20193;-88
2022/09/06 06:08:46;;;;;;;3.47;1.40;;;15.90;56.40;;;;;;4996289;28;20211;-90
2022/09/06 06:11:13;;;;;;;2.80;1.30;;;15.90;56.60;;;;;;5013932;28;20177;-87
2022/09/06 06:13:39;;;;;;;3.80;1.77;;;16.00;56.40;;;;;;5014140;28;20228;-88
2022/09/06 06:16:10;;;;;;;3.07;1.70;;;16.00;56.30;;;;;;5013757;28;20185;-87
2022/09/06 06:18:36;;;;;;;5.53;1.73;;;16.00;56.50;;;;;;5014075;28;20200;-87
2022/09/06 06:21:18;;;;;;;3.03;1.80;;;16.00;56.10;;;;;;4996515;28;20651;-88
2022/09/06 06:23:46;;;;;;;3.57;1.90;;;16.10;56.20;;;;;;5013945;28;20247;-86
2022/09/06 06:26:12;;;;;;;4.57;1.50;;;16.10;56.20;;;;;;4996289;28;20262;-88
2022/09/06 06:28:39;;;;;;;3.70;1.43;;;16.10;56.30;;;;;;4996309;28;20230;-87
2022/09/06 06:31:06;;;;;;;6.47;1.75;;;16.10;56.60;;;;;;4996335;28;20643;-86
2022/09/06 06:33:32;;;;;;;3.30;1.70;;;16.10;56.00;;;;;;4996250;28;20778;-87
2022/09/06 06:36:02;;;;;;;2.10;1.60;;;16.10;56.60;;;;;;4996047;28;20288;-86
2022/09/06 06:38:32;;;;;;;4.33;1.43;;;16.10;56.10;;;;;;5013733;28;20675;-86
2022/09/06 06:40:59;;;;;;;5.43;1.90;;;16.20;56.50;;;;;;4996133;28;20554;-85
2022/09/06 06:43:25;;;;;;;4.93;1.60;;;16.20;56.30;;;;;;5013672;28;20204;-87
2022/09/06 06:45:50;;;;;;;4.70;1.60;;;16.30;56.30;;;;;;5013551;28;20186;-88
2022/09/06 06:48:16;;;;;;;4.70;1.58;;;16.30;55.70;;;;;;4996073;28;20180;-87
2022/09/06 06:50:42;;;;;;;8.82;1.48;;;16.40;55.60;;;;;;4996417;28;20268;-86
2022/09/06 06:53:08;;;;;;;5.32;1.50;;;16.40;56.60;;;;;;5014128;28;20178;-88
2022/09/06 06:55:34;;;;;;;2.47;1.60;;;16.50;56.00;;;;;;4995981;28;20204;-87
2022/09/06 06:58:00;;;;;;;5.07;1.60;;;16.60;55.50;;;;;;4999947;28;20184;-88
2022/09/06 07:00:26;;;;;;;2.22;1.52;;;16.60;55.40;;;;;;5000067;28;20177;-87
2022/09/06 07:02:55;;;;;;;10.63;1.90;;;16.60;54.90;;;;;;5000453;28;20250;-87
2022/09/06 07:05:25;;;;;;;4.43;1.65;;;16.60;54.70;;;;;;5002480;28;20220;-89
2022/09/06 07:07:50;;;;;;;5.47;1.45;;;16.70;55.50;;;;;;5017865;28;20256;-89
2022/09/06 07:10:16;;;;;;;4.65;1.52;;;16.60;54.70;;;;;;5017005;28;20610;-88
2022/09/06 07:12:41;;;;;;;4.38;1.73;;;16.60;54.40;;;;;;4999516;28;20192;-87
2022/09/06 07:15:07;;;;;;;4.63;1.60;;;16.70;54.80;;;;;;5017129;28;20178;-90
2022/09/06 07:17:34;;;;;;;6.03;1.80;;;16.70;54.90;;;;;;4999332;28;20176;-89
2022/09/06 07:20:00;;;;;;;2.60;1.52;;;16.70;55.60;;;;;;5016883;28;20228;-89
2022/09/06 07:22:25;;;;;;;6.97;1.60;;;16.80;54.60;;;;;;4999076;28;20679;-88
2022/09/06 07:24:51;;;;;;;3.63;1.80;;;16.80;55.20;;;;;;4999271;28;20265;-88
2022/09/06 07:27:16;;;;;;;4.30;1.88;;;16.80;55.20;;;;;;5016786;28;20287;-90
2022/09/06 07:29:42;;;;;;;9.48;1.40;;;16.90;55.50;;;;;;4999229;28;20217;-90
2022/09/06 07:32:07;;;;;;;2.72;1.73;;;16.90;54.90;;;;;;5016970;28;20170;-88
2022/09/06 07:34:36;;;;;;;2.08;1.38;;;16.90;55.50;;;;;;4999118;28;20683;-89
2022/09/06 07:37:02;;;;;;;2.40;1.50;;;16.90;54.70;;;;;;4998979;28;20208;-88
2022/09/06 07:39:27;;;;;;;1.90;1.60;;;16.90;54.80;;;;;;4999180;28;20185;-88
2022/09/06 07:41:53;;;;;;;2.00;1.40;;;16.90;55.20;;;;;;4998839;28;20205;-88
2022/09/06 07:44:19;;;;;;;3.90;1.50;;;17.00;55.30;;;;;;4998877;28;20177;-88
2022/09/06 07:46:44;;;;;;;4.78;1.80;;;16.90;55.40;;;;;;4998852;28;20197;-88
2022/09/06 07:49:10;;;;;;;4.30;1.58;;;16.90;56.20;;;;;;5016240;28;20183;-88
2022/09/06 07:51:35;;;;;;;5.18;1.92;;;17.00;54.80;;;;;;5017100;28;20165;-87
2022/09/06 07:54:01;;;;;;;5.60;1.60;;;17.00;55.40;;;;;;4999521;28;20220;-88
2022/09/06 07:56:27;;;;;;;2.70;1.52;;;17.00;55.90;;;;;;5017004;28;20190;-87
2022/09/06 07:58:52;;;;;;;2.20;1.73;;;17.00;55.10;;;;;;4999079;28;20169;-87
2022/09/06 08:01:29;;;;;;;3.35;1.80;;;17.00;55.10;;;;;;5016915;28;20192;-87
2022/09/06 08:04:02;;;;;;;5.63;1.73;;;17.10;55.40;;;;;;5016758;28;20161;-87
2022/09/06 08:06:30;;;;;;;2.22;1.48;;;17.00;54.80;;;;;;5016956;28;20189;-88
2022/09/06 08:08:56;;;;;;;6.25;1.70;;;17.10;54.70;;;;;;5015357;28;20185;-88
2022/09/06 08:11:25;;;;;;;6.30;1.65;;;17.10;55.30;;;;;;4998785;28;20177;-87
2022/09/06 08:13:53;;;;;;;2.08;1.48;;;17.10;55.50;;;;;;4998863;28;20528;-87
2022/09/06 08:16:20;;;;;;;6.38;1.58;;;17.00;55.40;;;;;;5016185;28;20216;-87
2022/09/06 08:18:52;;;;;;;3.50;1.90;;;17.00;55.50;;;;;;5016407;28;20178;-87
2022/09/06 08:21:19;;;;;;;3.03;1.70;;;17.00;55.70;;;;;;5016364;28;20172;-87
2022/09/06 08:23:47;;;;;;;8.55;1.70;;;17.10;55.20;;;;;;5016124;28;20667;-87
2022/09/06 08:26:14;;;;;;;6.03;2.13;;;17.10;55.60;;;;;;4998450;28;20220;-86
2022/09/06 08:28:40;;;;;;;2.85;1.80;;;17.10;55.30;;;;;;5016138;28;20256;-86
2022/09/06 08:31:11;;;;;;;2.10;1.67;;;17.10;55.00;;;;;;4998566;28;20216;-87
2022/09/06 08:33:38;;;;;;;2.70;1.58;;;17.10;55.90;;;;;;4998621;28;20186;-87
2022/09/06 08:36:04;;;;;;;2.28;1.80;;;17.10;56.50;;;;;;5016124;28;20224;-87
2022/09/06 08:38:30;;;;;;;4.40;1.60;;;17.10;56.00;;;;;;4998569;28;20184;-87
2022/09/06 08:41:06;;;;;;;6.28;1.95;;;17.10;56.10;;;;;;5016324;28;20177;-87
2022/09/06 08:43:32;;;;;;;2.97;1.70;;;17.10;55.70;;;;;;5016134;28;20192;-86
2022/09/06 08:45:57;;;;;;;3.55;1.65;;;17.10;56.50;;;;;;5015719;28;20189;-87
2022/09/06 08:48:27;;;;;;;6.50;1.77;;;17.10;56.60;;;;;;4998326;28;20165;-86
2022/09/06 08:51:15;;;;;;;5.22;1.63;;;17.10;56.30;;;;;;5016075;28;20205;-85
2022/09/06 08:53:45;;;;;;;6.43;1.63;;;17.10;56.10;;;;;;5015441;28;20512;-86
2022/09/06 08:56:27;;;;;;;3.65;1.88;;;17.10;56.70;;;;;;5015295;28;20217;-86
2022/09/06 08:59:05;;;;;;;2.28;1.40;;;17.10;56.60;;;;;;5015409;28;20169;-88
2022/09/06 09:01:57;;;;;;;4.60;1.70;;;17.00;56.80;;;;;;5015401;28;20180;-87
2022/09/06 09:04:27;;;;;;;6.88;1.77;;;17.10;56.90;;;;;;4997639;28;20185;-86
2022/09/06 09:06:58;;;;;;;5.72;1.55;;;17.00;56.80;;;;;;4997358;28;20201;-86
2022/09/06 09:09:29;;;;;;;6.78;2.00;;;17.00;57.80;;;;;;4997548;28;20177;-85
2022/09/06 09:11:56;;;;;;;4.30;1.65;;;17.10;57.60;;;;;;5015079;28;20203;-86
2022/09/06 09:14:26;;;;;;;3.88;1.75;;;17.10;57.10;;;;;;5015598;28;20177;-86
2022/09/06 09:16:53;;;;;;;2.25;1.80;;;17.10;57.40;;;;;;5015158;28;20204;-85
2022/09/06 09:19:19;;;;;;;2.80;1.80;;;17.10;56.90;;;;;;4996972;28;20185;-87
2022/09/06 09:21:45;;;;;;;15.80;2.63;;;17.20;57.90;;;;;;5014638;28;20169;-87
2022/09/06 09:24:14;;;;;;;3.58;1.98;;;17.20;57.50;;;;;;5014727;28;20667;-86
2022/09/06 09:26:42;;;;;;;5.85;2.00;;;17.30;58.30;;;;;;4996854;28;20244;-86
2022/09/06 09:29:11;;;;;;;6.57;2.00;;;17.40;57.30;;;;;;4997152;28;20177;-85
2022/09/06 09:31:45;;;;;;;3.55;2.20;;;17.40;57.60;;;;;;5014695;28;20702;-85
2022/09/06 09:34:25;;;;;;;7.35;2.88;;;17.50;57.30;;;;;;4996919;28;20172;-87
2022/09/06 09:37:08;;;;;;;5.63;3.10;;;17.50;57.50;;;;;;4997165;28;20224;-86
2022/09/06 09:39:36;;;;;;;5.50;3.63;;;17.60;58.30;;;;;;4996935;28;20173;-86
2022/09/06 09:42:02;;;;;;;12.98;3.50;;;17.50;57.20;;;;;;4996902;28;20205;-86
2022/09/06 09:44:28;;;;;;;8.65;4.38;;;17.60;57.50;;;;;;5014310;28;20179;-85
2022/09/06 09:46:54;;;;;;;8.00;3.88;;;17.60;57.90;;;;;;4996620;28;20197;-86
2022/09/06 09:49:27;;;;;;;10.63;4.15;;;17.60;58.50;;;;;;5014842;28;20169;-87
2022/09/06 09:52:13;;;;;;;7.90;3.03;;;17.70;58.30;;;;;;5014318;28;20584;-86
2022/09/06 09:54:45;;;;;;;12.75;4.10;;;17.70;58.20;;;;;;4996740;28;20176;-85
2022/09/06 09:57:16;;;;;;;8.75;3.30;;;17.80;58.70;;;;;;5014411;28;20189;-84
2022/09/06 09:59:44;;;;;;;7.60;3.40;;;17.80;58.20;;;;;;4996652;28;20169;-85
2022/09/06 10:02:40;;;;;;;7.30;3.83;;;17.80;58.80;;;;;;4996457;28;20259;-85
2022/09/06 10:05:17;;;;;;;5.00;2.58;;;17.80;58.50;;;;;;4996490;28;20260;-85
2022/09/06 10:07:48;;;;;;;7.85;4.15;;;17.80;57.20;;;;;;4996725;28;20255;-86
2022/09/06 10:10:22;;;;;;;9.23;4.82;;;17.80;59.00;;;;;;4996345;28;20173;-86
2022/09/06 10:12:48;;;;;;;10.10;3.95;;;17.80;58.90;;;;;;4997189;28;20200;-85
2022/09/06 10:15:35;;;;;;;7.47;4.40;;;17.70;58.80;;;;;;4996633;28;20239;-86
2022/09/06 10:18:01;;;;;;;11.13;3.30;;;17.70;59.70;;;;;;5014215;28;20647;-86
2022/09/06 10:20:50;;;;;;;10.82;2.67;;;17.80;59.40;;;;;;4996495;28;20212;-84
2022/09/06 10:23:30;;;;;;;6.47;3.38;;;17.80;59.10;;;;;;4996358;28;20177;-86
2022/09/06 10:26:07;;;;;;;7.60;3.72;;;17.80;59.00;;;;;;4995949;28;20212;-86
2022/09/06 10:28:35;;;;;;;12.32;3.90;;;17.80;59.10;;;;;;4996455;28;20224;-86
2022/09/06 10:31:01;;;;;;;6.78;3.40;;;17.80;59.40;;;;;;4998292;28;20678;-86
2022/09/06 10:33:33;;;;;;;5.45;3.20;;;17.90;59.40;;;;;;5002705;28;20224;-85
2022/09/06 10:36:00;;;;;;;7.28;2.40;;;17.90;59.20;;;;;;5020731;28;20252;-84
2022/09/06 10:38:34;;;;;;;5.32;2.42;;;18.00;58.90;;;;;;5020177;28;20169;-86
2022/09/06 10:41:43;;;;;;;5.53;3.25;;;18.00;59.40;;;;;;5002765;28;20177;-86
2022/09/06 10:44:41;;;;;;;4.13;3.20;;;18.00;59.50;;;;;;4977095;28;20185;-85
2022/09/06 10:47:13;;;;;;;8.15;3.30;;;18.10;59.40;;;;;;5002227;28;20710;-85
2022/09/06 10:49:54;;;;;;;6.82;3.10;;;18.20;60.10;;;;;;5002256;28;20189;-85
2022/09/06 10:52:27;;;;;;;4.15;2.65;;;18.20;59.80;;;;;;5020315;28;20201;-85
2022/09/06 10:54:56;;;;;;;11.48;2.70;;;18.30;58.50;;;;;;5020058;28;20196;-86
2022/09/06 10:57:37;;;;;;;3.60;2.38;;;18.40;58.80;;;;;;5002398;28;20220;-86
2022/09/06 11:00:15;;;;;;;11.50;3.00;;;18.40;58.00;;;;;;5002431;28;20169;-86
2022/09/06 11:03:03;;;;;;;5.82;2.15;;;18.40;57.30;;;;;;5020128;28;20240;-85
2022/09/06 11:05:43;;;;;;;4.65;2.28;;;18.40;57.50;;;;;;5020262;28;20247;-86
2022/09/06 11:08:22;;;;;;;10.15;2.90;;;18.50;57.60;;;;;;5002926;28;20739;-87
2022/09/06 11:10:51;;;;;;;3.60;2.22;;;18.50;57.70;;;;;;5002602;28;20177;-87
2022/09/06 11:13:18;;;;;;;2.10;1.90;;;18.50;56.80;;;;;;5020081;28;20196;-87
2022/09/06 11:16:15;;;;;;;3.50;2.10;;;18.50;56.90;;;;;;5002595;28;20194;-86
2022/09/06 11:19:05;;;;;;;6.20;2.40;;;18.60;57.70;;;;;;5001915;28;20181;-86
2022/09/06 11:21:56;;;;;;;3.60;2.53;;;18.50;56.80;;;;;;5002534;28;20174;-86
2022/09/06 11:24:46;;;;;;;3.67;2.28;;;18.50;57.30;;;;;;5003482;28;20188;-87
2022/09/06 11:27:39;;;;;;;6.10;2.10;;;18.60;56.80;;;;;;5002482;28;20299;-86
2022/09/06 11:30:05;;;;;;;3.03;2.13;;;18.60;57.00;;;;;;4999062;28;20589;-86
2022/09/06 11:32:49;;;;;;;6.63;2.72;;;18.70;57.30;;;;;;5002195;28;20231;-87
2022/09/06 11:35:39;;;;;;;2.83;1.98;;;18.70;56.90;;;;;;5002066;28;20256;-87
2022/09/06 11:38:20;;;;;;;3.00;2.22;;;18.70;57.00;;;;;;5002210;28;20169;-86
2022/09/06 11:40:53;;;;;;;3.35;2.03;;;18.70;57.00;;;;;;5020118;28;20244;-86
2022/09/06 11:43:40;;;;;;;4.05;2.25;;;18.70;57.80;;;;;;5017662;28;20674;-86
2022/09/06 11:46:06;;;;;;;6.20;2.28;;;18.60;58.20;;;;;;4999155;28;20199;-88
2022/09/06 11:48:41;;;;;;;3.97;2.40;;;18.50;58.20;;;;;;5016843;28;20177;-87
2022/09/06 11:51:11;;;;;;;4.50;2.25;;;18.50;59.30;;;;;;5016971;28;20169;-87
2022/09/06 11:53:48;;;;;;;7.38;1.95;;;18.50;59.30;;;;;;4999126;28;20201;-86
2022/09/06 11:56:27;;;;;;;10.32;1.98;;;18.50;59.70;;;;;;4999183;28;20594;-86
2022/09/06 11:59:00;;;;;;;5.07;2.03;;;18.50;60.90;;;;;;5016409;28;20169;-86
2022/09/06 12:01:26;;;;;;;3.08;2.20;;;18.40;59.50;;;;;;4998882;28;20169;-87
2022/09/06 12:03:51;;;;;;;10.90;2.67;;;18.30;59.80;;;;;;5016395;28;20177;-86
2022/09/06 12:06:23;;;;;;;7.13;2.10;;;18.30;59.40;;;;;;5016418;28;20197;-87
2022/09/06 12:08:54;;;;;;;5.20;2.50;;;18.30;60.20;;;;;;5016330;28;20589;-86
2022/09/06 12:11:43;;;;;;;4.63;2.22;;;18.30;60.60;;;;;;4998647;28;20173;-86
2022/09/06 12:14:39;;;;;;;9.32;2.35;;;18.30;59.10;;;;;;4998757;28;20180;-86
2022/09/06 12:17:05;;;;;;;10.93;3.47;;;18.30;59.40;;;;;;5016182;28;20189;-87
2022/09/06 12:19:50;;;;;;;5.07;2.20;;;18.30;58.60;;;;;;4998642;28;20174;-87
2022/09/06 12:22:28;;;;;;;6.10;2.05;;;18.30;59.50;;;;;;4999013;28;20177;-87
2022/09/06 12:24:58;;;;;;;7.10;2.25;;;18.30;60.10;;;;;;5016262;28;20177;-87
2022/09/06 12:27:50;;;;;;;3.47;2.40;;;18.30;60.30;;;;;;5015903;28;20581;-87
2022/09/06 12:30:37;;;;;;;7.10;2.00;;;18.30;59.80;;;;;;4988475;28;20349;-87
2022/09/06 12:33:12;;;;;;;4.78;2.22;;;18.30;59.40;;;;;;5015907;28;20236;-87
2022/09/06 12:35:38;;;;;;;7.78;1.95;;;18.30;58.90;;;;;;5016118;28;20185;-86
2022/09/06 12:38:10;;;;;;;5.30;2.03;;;18.30;58.70;;;;;;4998167;28;20179;-86
2022/09/06 12:40:46;;;;;;;3.58;2.13;;;18.30;59.10;;;;;;5015701;28;20175;-86
2022/09/06 12:43:15;;;;;;;5.05;2.78;;;18.30;59.50;;;;;;5015508;28;20166;-86
2022/09/06 12:45:43;;;;;;;12.75;3.03;;;18.30;59.60;;;;;;4997792;28;20197;-87
2022/09/06 12:48:25;;;;;;;8.52;3.63;;;18.30;59.80;;;;;;5015389;28;20261;-87
2022/09/06 12:51:12;;;;;;;7.07;4.13;;;18.30;59.90;;;;;;4997944;28;20174;-87
2022/09/06 12:53:38;;;;;;;9.10;4.88;;;18.40;60.30;;;;;;4997480;28;20220;-87
2022/09/06 12:56:11;;;;;;;15.90;5.50;;;18.40;60.00;;;;;;5015427;28;20224;-88
2022/09/06 12:58:38;;;;;;;10.95;5.75;;;18.40;60.10;;;;;;5016391;28;20166;-87
2022/09/06 13:01:16;;;;;;;10.45;6.68;;;18.40;59.50;;;;;;5016611;28;20197;-89
2022/09/06 13:04:03;;;;;;;15.65;7.60;;;18.50;59.50;;;;;;4997602;28;20545;-88